Terminal Aerodrome Forecast
Issued by NWS Cleveland, OH

Home | Current Version | Previous Version | Graphics & Text | Print | Product List | Glossary Off
Versions: 1 2 3 4 5 6 7 8 9 10 11 12 13 14 15 16 17 18 19

000
FTUS41 KCLE 200900 AAA
TAFYNG
TAF AMD
KYNG 200945Z 2010/2106 16012G22KT P6SM OVC015
     FM201200 18012G22KT P6SM SCT015 OVC025
      TEMPO 2012/2015 SCT025 OVC035
     FM201500 20015G25KT P6SM VCTS OVC025CB
      TEMPO 2016/2019 4SM -SHRA OVC015
     FM201900 22020G30KT P6SM OVC018
     FM210100 24012KT P6SM OVC035=

USA.gov is the U.S. government's official web portal to all federal, state and local government web resources and services.